createdAt,value
2024-03-09T00:00:57.247Z,4.25
2024-03-09T00:06:01.168Z,4.20
2024-03-09T00:11:04.375Z,4.13
2024-03-09T00:16:09.636Z,4.09
2024-03-09T00:21:12.836Z,4.09
2024-03-09T00:26:15.719Z,4.06
2024-03-09T00:31:21.071Z,3.99
2024-03-09T00:36:24.530Z,3.95
2024-03-09T00:41:27.643Z,3.92
2024-03-09T00:46:35.153Z,3.94
2024-03-09T00:51:39.077Z,3.98
2024-03-09T00:56:42.056Z,3.89
2024-03-09T01:01:46.312Z,3.79
2024-03-09T01:06:50.316Z,3.75
2024-03-09T01:11:53.647Z,3.72
2024-03-09T01:16:58.740Z,3.79
2024-03-09T01:22:06.993Z,3.71
2024-03-09T01:27:10.910Z,3.61
2024-03-09T01:32:15.897Z,3.57
2024-03-09T01:37:23.229Z,3.59
2024-03-09T01:42:27.914Z,3.52
2024-03-09T01:47:33.938Z,3.46
2024-03-09T01:52:36.873Z,3.39
2024-03-09T01:57:40.122Z,3.40
2024-03-09T02:02:44.474Z,3.41
2024-03-09T02:07:48.257Z,3.44
2024-03-09T02:12:51.232Z,3.45
2024-03-09T02:17:58.120Z,3.46
2024-03-09T02:23:01.723Z,3.42
2024-03-09T02:28:06.811Z,3.46
2024-03-09T02:33:10.339Z,3.39
2024-03-09T02:38:13.258Z,3.43
2024-03-09T02:43:22.389Z,3.43
2024-03-09T02:48:26.142Z,3.39
2024-03-09T02:53:28.995Z,3.38
2024-03-09T02:58:33.653Z,3.37
2024-03-09T03:03:51.033Z,3.37
2024-03-09T03:08:57.170Z,3.37
2024-03-09T03:14:04.679Z,3.31
2024-03-09T03:19:10.629Z,3.30
2024-03-09T03:24:14.584Z,3.29
2024-03-09T03:29:18.960Z,3.28
2024-03-09T03:34:22.678Z,3.25
2024-03-09T03:39:28.964Z,3.23
2024-03-09T03:44:36.879Z,3.21
2024-03-09T03:49:42.165Z,3.23
2024-03-09T03:54:46.195Z,3.22
2024-03-09T03:59:51.372Z,3.19
2024-03-09T04:04:54.378Z,3.22
2024-03-09T04:09:57.301Z,3.23
2024-03-09T04:15:04.987Z,3.14
2024-03-09T04:20:08.933Z,3.12
2024-03-09T04:25:12.909Z,3.08
2024-03-09T04:30:17.926Z,3.10
2024-03-09T04:35:22.150Z,3.15
2024-03-09T04:40:26.453Z,3.12
2024-03-09T04:45:32.129Z,3.10
2024-03-09T04:50:35.325Z,3.09
2024-03-09T04:55:38.579Z,3.04
2024-03-09T05:00:43.606Z,3.06
2024-03-09T05:05:46.558Z,3.02
2024-03-09T05:10:49.455Z,3.01
2024-03-09T05:15:54.434Z,3.00
2024-03-09T05:20:57.458Z,3.04
2024-03-09T05:26:00.993Z,3.02
2024-03-09T05:31:07.368Z,3.01
2024-03-09T05:36:10.539Z,2.99
2024-03-09T05:41:13.707Z,2.92
2024-03-09T05:46:19.503Z,3.00
2024-03-09T05:51:22.421Z,3.06
2024-03-09T05:56:25.747Z,3.00
2024-03-09T06:01:31.025Z,3.03
2024-03-09T06:06:35.081Z,3.09
2024-03-09T06:11:38.065Z,3.01
2024-03-09T06:16:43.217Z,3.03
2024-03-09T06:21:46.079Z,3.02
2024-03-09T06:26:49.355Z,3.01
2024-03-09T06:31:54.201Z,3.11
2024-03-09T06:36:57.451Z,3.02
2024-03-09T06:42:00.865Z,3.25
2024-03-09T06:47:07.399Z,3.36
2024-03-09T06:52:13.596Z,3.50
2024-03-09T06:57:16.734Z,3.51
2024-03-09T07:02:22.484Z,3.62
2024-03-09T07:07:25.447Z,3.89
2024-03-09T07:12:29.668Z,4.18
2024-03-09T07:17:35.369Z,4.47
2024-03-09T07:22:41.260Z,4.75
2024-03-09T07:27:47.240Z,4.87
2024-03-09T07:32:51.905Z,5.12
2024-03-09T07:37:56.836Z,5.14
2024-03-09T07:42:59.913Z,5.14
2024-03-09T07:48:05.928Z,5.39
2024-03-09T07:53:08.962Z,5.68
2024-03-09T07:58:18.472Z,5.62
2024-03-09T08:03:33.863Z,5.69
2024-03-09T08:08:37.116Z,5.87
2024-03-09T08:13:42.629Z,5.74
2024-03-09T08:18:47.909Z,5.63
2024-03-09T08:23:50.778Z,6.17
2024-03-09T08:28:53.977Z,6.56
2024-03-09T08:33:59.090Z,6.69
2024-03-09T08:39:02.155Z,6.99
2024-03-09T08:44:08.636Z,6.74
2024-03-09T08:49:15.160Z,7.38
2024-03-09T08:54:19.234Z,7.21
2024-03-09T08:59:22.614Z,7.38
2024-03-09T09:04:27.403Z,7.69
2024-03-09T09:09:32.788Z,7.47
2024-03-09T09:14:35.971Z,7.65
2024-03-09T09:19:41.061Z,7.40
2024-03-09T09:24:44.319Z,7.60
2024-03-09T09:29:48.886Z,7.97
2024-03-09T09:34:53.621Z,7.79
2024-03-09T09:39:57.028Z,8.17
2024-03-09T09:45:00.440Z,8.30
2024-03-09T09:50:07.127Z,8.41
2024-03-09T09:55:14.010Z,8.73
2024-03-09T10:00:19.333Z,8.61
2024-03-09T10:05:25.517Z,8.88
2024-03-09T10:10:29.335Z,9.16
2024-03-09T10:15:34.219Z,9.53
2024-03-09T10:20:41.750Z,9.55
2024-03-09T10:25:45.103Z,9.80
2024-03-09T10:30:48.749Z,9.97
2024-03-09T10:35:54.534Z,10.37
2024-03-09T10:40:59.888Z,10.34
2024-03-09T10:46:06.542Z,10.74
2024-03-09T10:51:32.144Z,10.59
2024-03-09T10:56:36.774Z,11.53
2024-03-09T11:01:40.839Z,11.60
2024-03-09T11:06:46.556Z,11.77
2024-03-09T11:11:51.727Z,12.09
2024-03-09T11:16:54.987Z,12.50
2024-03-09T11:22:02.167Z,12.86
2024-03-09T11:27:05.248Z,12.96
2024-03-09T11:32:14.716Z,12.82
2024-03-09T11:37:19.042Z,13.31
2024-03-09T11:42:22.948Z,13.68
2024-03-09T11:47:26.014Z,14.25
2024-03-09T11:52:31.674Z,14.76
2024-03-09T11:57:39.462Z,14.90
2024-03-09T12:02:42.875Z,15.64
2024-03-09T12:07:48.286Z,15.98
2024-03-09T12:12:54.417Z,15.86
2024-03-09T12:18:00.081Z,15.89
2024-03-09T12:23:04.580Z,16.64
2024-03-09T12:28:08.682Z,16.41
2024-03-09T12:33:13.197Z,15.82
2024-03-09T12:38:18.315Z,16.87
2024-03-09T12:43:21.905Z,17.02
2024-03-09T12:48:25.159Z,16.56
2024-03-09T12:53:30.269Z,17.85
2024-03-09T12:58:34.085Z,18.40
2024-03-09T13:03:37.283Z,18.97
2024-03-09T13:08:44.500Z,17.37
2024-03-09T13:13:47.807Z,17.82
2024-03-09T13:18:51.351Z,16.65
2024-03-09T13:23:59.195Z,16.63
2024-03-09T13:29:02.257Z,16.16
2024-03-09T13:34:10.799Z,15.20
2024-03-09T13:39:18.179Z,15.11
2024-03-09T13:44:25.158Z,15.01
2024-03-09T13:49:30.159Z,14.68
2024-03-09T13:54:35.220Z,14.55
2024-03-09T13:59:38.132Z,14.24
2024-03-09T14:04:42.574Z,14.38
2024-03-09T14:09:50.716Z,14.34
2024-03-09T14:14:55.765Z,13.91
2024-03-09T14:20:04.772Z,13.87
2024-03-09T14:25:15.558Z,13.83
2024-03-09T14:30:25.415Z,13.91
2024-03-09T14:35:33.518Z,14.22
2024-03-09T14:40:37.993Z,14.35
2024-03-09T14:45:42.079Z,14.54
2024-03-09T14:50:45.128Z,13.98
2024-03-09T14:55:51.043Z,13.99
2024-03-09T15:00:56.388Z,13.72
2024-03-09T15:06:00.135Z,13.45
2024-03-09T15:11:15.423Z,13.25
2024-03-09T15:16:23.398Z,13.01
2024-03-09T15:21:27.524Z,13.03
2024-03-09T15:26:35.930Z,13.03
2024-03-09T15:31:39.091Z,12.94
2024-03-09T15:36:42.156Z,12.81
2024-03-09T15:41:46.451Z,12.59
2024-03-09T15:46:50.703Z,12.55
2024-03-09T15:51:55.483Z,12.48
2024-03-09T15:56:59.792Z,12.22
2024-03-09T16:02:02.984Z,12.12
2024-03-09T16:07:05.928Z,12.08
2024-03-09T16:12:12.331Z,11.93
2024-03-09T16:17:18.176Z,11.82
2024-03-09T16:22:23.677Z,11.79
2024-03-09T16:27:27.918Z,11.58
2024-03-09T16:32:30.829Z,11.52
2024-03-09T16:37:35.212Z,11.41
2024-03-09T16:42:40.512Z,11.31
2024-03-09T16:47:44.914Z,11.24
2024-03-09T16:52:47.922Z,11.18
2024-03-09T16:57:53.113Z,11.11
2024-03-09T17:02:58.134Z,11.02
2024-03-09T17:08:03.218Z,10.88
2024-03-09T17:13:07.649Z,10.83
2024-03-09T17:18:15.681Z,10.71
2024-03-09T17:23:19.372Z,10.65
2024-03-09T17:28:24.648Z,10.60
2024-03-09T17:33:27.708Z,10.56
2024-03-09T17:38:31.759Z,10.50
2024-03-09T17:43:36.580Z,10.47
2024-03-09T17:48:43.158Z,10.43
2024-03-09T17:53:46.716Z,10.39
2024-03-09T17:58:51.878Z,10.35
2024-03-09T18:03:54.919Z,10.33
2024-03-09T18:09:01.308Z,10.28
2024-03-09T18:14:07.758Z,10.24
2024-03-09T18:19:11.440Z,10.21
2024-03-09T18:24:15.931Z,10.18
2024-03-09T18:29:22.210Z,10.16
2024-03-09T18:34:25.306Z,10.14
2024-03-09T18:39:31.711Z,10.18
2024-03-09T18:44:36.286Z,10.14
2024-03-09T18:49:40.084Z,10.10
2024-03-09T18:54:44.784Z,10.15
2024-03-09T18:59:49.868Z,10.12
2024-03-09T19:04:52.839Z,10.12
2024-03-09T19:09:56.626Z,10.06
2024-03-09T19:15:01.208Z,10.02
2024-03-09T19:20:12.614Z,10.01
2024-03-09T19:25:17.620Z,10.02
2024-03-09T19:30:27.367Z,10.00
2024-03-09T19:35:30.873Z,9.95
2024-03-09T19:40:33.878Z,9.97
2024-03-09T19:45:38.949Z,9.93
2024-03-09T19:50:42.239Z,9.89
2024-03-09T19:55:46.740Z,9.89
2024-03-09T20:00:52.082Z,9.85
2024-03-09T20:05:55.761Z,9.82
2024-03-09T20:11:03.183Z,9.80
2024-03-09T20:16:09.907Z,9.80
2024-03-09T20:21:14.496Z,9.78
2024-03-09T20:26:17.888Z,9.82
2024-03-09T20:31:23.044Z,9.74
2024-03-09T20:36:26.485Z,9.75
2024-03-09T20:41:29.693Z,9.73
2024-03-09T20:46:34.005Z,9.73
2024-03-09T20:51:41.587Z,9.68
2024-03-09T20:56:44.568Z,9.67
2024-03-09T21:01:48.963Z,9.61
2024-03-09T21:06:52.575Z,9.62
2024-03-09T21:11:56.247Z,9.61
2024-03-09T21:17:01.314Z,9.55
2024-03-09T21:22:07.571Z,9.52
2024-03-09T21:27:16.424Z,9.51
2024-03-09T21:32:21.181Z,9.45
2024-03-09T21:37:24.285Z,9.37
2024-03-09T21:42:29.110Z,9.29
2024-03-09T21:47:34.172Z,9.14
2024-03-09T21:52:37.120Z,9.08
2024-03-09T21:57:40.401Z,9.06
2024-03-09T22:02:44.710Z,9.08
2024-03-09T22:07:49.067Z,9.06
2024-03-09T22:12:55.976Z,9.04
2024-03-09T22:18:01.440Z,9.04
2024-03-09T22:23:06.124Z,9.04
2024-03-09T22:28:09.476Z,9.07
2024-03-09T22:33:13.966Z,9.02
2024-03-09T22:38:17.028Z,9.02
2024-03-09T22:43:21.036Z,8.96
2024-03-09T22:48:28.644Z,8.90
2024-03-09T22:53:32.032Z,8.84
2024-03-09T22:58:35.036Z,8.73
2024-03-09T23:03:40.255Z,8.60
2024-03-09T23:08:43.267Z,8.45
2024-03-09T23:13:49.628Z,8.35
2024-03-09T23:18:54.013Z,8.27
2024-03-09T23:23:57.353Z,8.26
2024-03-09T23:29:00.860Z,8.19
2024-03-09T23:34:06.103Z,8.10
2024-03-09T23:39:10.479Z,8.03
2024-03-09T23:44:13.577Z,7.95
2024-03-09T23:49:19.336Z,7.92
2024-03-09T23:54:22.341Z,7.84
2024-03-09T23:59:25.440Z,7.79
